createdAt,value
2017-12-23T00:00:47.418Z,1028.3
2017-12-23T00:01:47.638Z,1028.28
2017-12-23T00:02:47.666Z,1028.24
2017-12-23T00:03:48.200Z,1028.29
2017-12-23T00:04:48.115Z,1028.32
2017-12-23T00:05:48.270Z,1028.33
2017-12-23T00:06:48.273Z,1028.34
2017-12-23T00:07:48.326Z,1028.31
2017-12-23T00:08:48.320Z,1028.3
2017-12-23T00:09:48.347Z,1028.32
2017-12-23T00:10:48.505Z,1028.29
2017-12-23T00:11:48.511Z,1028.31
2017-12-23T00:12:48.553Z,1028.24
2017-12-23T00:13:48.710Z,1028.24
2017-12-23T00:14:48.712Z,1028.18
2017-12-23T00:15:48.740Z,1028.18
2017-12-23T00:16:59.404Z,1028.13
2017-12-23T00:17:59.180Z,1028.15
2017-12-23T00:18:59.223Z,1028.08
2017-12-23T00:19:59.237Z,1028.04
2017-12-23T00:20:59.275Z,1028.06
2017-12-23T00:21:59.258Z,1028.05
2017-12-23T00:22:59.312Z,1028.06
2017-12-23T00:23:59.602Z,1028.02
2017-12-23T00:25:00.055Z,1028.08
2017-12-23T00:26:00.110Z,1027.97
2017-12-23T00:27:00.156Z,1027.96
2017-12-23T00:28:00.207Z,1027.92
2017-12-23T00:29:00.450Z,1027.9
2017-12-23T00:30:00.515Z,1027.83
2017-12-23T00:31:00.505Z,1027.83
2017-12-23T00:32:00.972Z,1027.77
2017-12-23T00:33:01.274Z,1027.74
2017-12-23T00:34:01.278Z,1027.75
2017-12-23T00:35:01.482Z,1027.73
2017-12-23T00:36:01.508Z,1027.71
2017-12-23T00:37:01.854Z,1027.7
2017-12-23T00:38:02.268Z,1027.72
2017-12-23T00:39:02.315Z,1027.62
2017-12-23T00:40:02.347Z,1027.61
2017-12-23T00:41:02.361Z,1027.6
2017-12-23T00:42:02.382Z,1027.56
2017-12-23T00:43:02.388Z,1027.47
2017-12-23T00:44:02.796Z,1027.47
2017-12-23T00:45:02.795Z,1027.51
2017-12-23T00:46:02.994Z,1027.48
2017-12-23T00:47:03.136Z,1027.43
2017-12-23T00:48:03.594Z,1027.5
2017-12-23T00:49:03.703Z,1027.59
2017-12-23T00:50:03.692Z,1027.56
2017-12-23T00:51:03.998Z,1027.55
2017-12-23T00:52:04.041Z,1027.56
2017-12-23T00:53:04.446Z,1027.57
2017-12-23T00:54:04.449Z,1027.52
2017-12-23T00:55:04.753Z,1027.56
2017-12-23T00:56:04.773Z,1027.43
2017-12-23T00:57:04.820Z,1027.47
2017-12-23T00:58:05.073Z,1027.44
2017-12-23T00:59:05.268Z,1027.44
2017-12-23T01:00:05.311Z,1027.48
2017-12-23T01:01:05.321Z,1027.44
2017-12-23T01:02:05.781Z,1027.43
2017-12-23T01:03:05.798Z,1027.37
2017-12-23T01:04:05.944Z,1027.41
2017-12-23T01:05:05.947Z,1027.41
2017-12-23T01:06:05.990Z,1027.31
2017-12-23T01:07:06.384Z,1027.31
2017-12-23T01:08:06.553Z,1027.26
2017-12-23T01:09:06.916Z,1027.22
2017-12-23T01:10:07.318Z,1027.19
2017-12-23T01:11:07.698Z,1027.17
2017-12-23T01:12:07.745Z,1027.14
2017-12-23T01:13:07.768Z,1027.2
2017-12-23T01:14:07.789Z,1027.13
2017-12-23T01:15:07.800Z,1027.16
2017-12-23T01:16:08.283Z,1027.22
2017-12-23T01:17:08.445Z,1027.18
2017-12-23T01:18:08.458Z,1027.17
2017-12-23T01:19:08.871Z,1027.16
2017-12-23T01:20:08.892Z,1027.24
2017-12-23T01:21:08.894Z,1027.17
2017-12-23T01:22:08.913Z,1027.14
2017-12-23T01:23:08.942Z,1027.05
2017-12-23T01:24:08.990Z,1027.11
2017-12-23T01:25:08.989Z,1027.15
2017-12-23T01:26:09.447Z,1027.06
2017-12-23T01:27:09.852Z,1027.1
2017-12-23T01:28:09.997Z,1027.08
2017-12-23T01:29:10.046Z,1027.08
2017-12-23T01:30:10.081Z,1026.98
2017-12-23T01:31:10.108Z,1026.98
2017-12-23T01:32:10.134Z,1026.95
2017-12-23T01:33:10.150Z,1026.95
2017-12-23T01:34:10.164Z,1026.9
2017-12-23T01:35:10.335Z,1026.93
2017-12-23T01:36:10.651Z,1026.92
2017-12-23T01:37:11.062Z,1026.92
2017-12-23T01:38:11.066Z,1026.91
2017-12-23T01:39:26.154Z,1026.91
2017-12-23T01:40:26.161Z,1026.89
2017-12-23T01:41:26.290Z,1026.83
2017-12-23T01:42:26.696Z,1026.85
2017-12-23T01:43:26.855Z,1026.82
2017-12-23T01:44:27.217Z,1026.83
2017-12-23T01:45:27.262Z,1026.84
2017-12-23T01:46:27.617Z,1026.83
2017-12-23T01:47:27.665Z,1026.85
2017-12-23T01:48:27.713Z,1026.87
2017-12-23T01:49:27.731Z,1026.9
2017-12-23T01:50:28.112Z,1026.88
2017-12-23T01:51:28.135Z,1026.89
2017-12-23T01:52:28.287Z,1026.85
2017-12-23T01:53:28.450Z,1026.91
2017-12-23T01:54:28.592Z,1026.88
2017-12-23T01:55:28.944Z,1026.86
2017-12-23T01:56:29.166Z,1026.84
2017-12-23T01:57:29.550Z,1026.8
2017-12-23T01:58:29.909Z,1026.74
2017-12-23T01:59:29.912Z,1026.8
2017-12-23T02:00:29.936Z,1026.76
2017-12-23T02:01:30.373Z,1026.71
2017-12-23T02:02:30.773Z,1026.73
2017-12-23T02:03:30.854Z,1026.67
2017-12-23T02:04:33.184Z,1026.65
2017-12-23T02:05:33.569Z,1026.68
2017-12-23T02:06:33.805Z,1026.55
2017-12-23T02:07:33.838Z,1026.63
2017-12-23T02:08:33.863Z,1026.59
2017-12-23T02:09:34.251Z,1026.53
2017-12-23T02:10:34.385Z,1026.46
2017-12-23T02:11:34.536Z,1026.49
2017-12-23T02:12:35.078Z,1026.42
2017-12-23T02:13:35.237Z,1026.36
2017-12-23T02:14:35.684Z,1026.38
2017-12-23T02:15:36.063Z,1026.38
2017-12-23T02:16:36.213Z,1026.36
2017-12-23T02:17:36.213Z,1026.29
2017-12-23T02:18:36.636Z,1026.34
2017-12-23T02:19:36.803Z,1026.35
2017-12-23T02:20:37.126Z,1026.41
2017-12-23T02:21:37.131Z,1026.33
2017-12-23T02:22:37.575Z,1026.3
2017-12-23T02:23:37.730Z,1026.25
2017-12-23T02:24:38.140Z,1026.21
2017-12-23T02:25:38.311Z,1026.18
2017-12-23T02:26:38.337Z,1026.14
2017-12-23T02:27:38.342Z,1026.17
2017-12-23T02:28:38.364Z,1026.19
2017-12-23T02:29:38.477Z,1026.19
2017-12-23T02:30:38.761Z,1026.19
2017-12-23T02:31:38.807Z,1026.12
2017-12-23T02:32:38.833Z,1026.18
2017-12-23T02:33:38.882Z,1026.19
2017-12-23T02:34:38.891Z,1026.15
2017-12-23T02:35:39.022Z,1026.12
2017-12-23T02:36:39.024Z,1026.04
2017-12-23T02:37:39.478Z,1026.04
2017-12-23T02:39:49.606Z,1026.11
2017-12-23T02:40:49.719Z,1026.13
2017-12-23T02:41:49.921Z,1026.11
2017-12-23T02:42:49.926Z,1026.09
2017-12-23T02:43:50.361Z,1026.09
2017-12-23T02:44:50.764Z,1026.11
2017-12-23T02:45:50.963Z,1026.07
2017-12-23T02:46:51.241Z,1026.01
2017-12-23T02:47:51.428Z,1025.95
2017-12-23T02:48:51.472Z,1026
2017-12-23T02:49:51.478Z,1025.98
2017-12-23T02:50:51.509Z,1025.9
2017-12-23T02:51:51.675Z,1025.91
2017-12-23T02:52:51.683Z,1025.98
2017-12-23T02:53:51.723Z,1025.98
2017-12-23T02:54:51.732Z,1025.99
2017-12-23T02:55:51.745Z,1026.02
2017-12-23T02:56:51.796Z,1025.98
2017-12-23T02:57:51.798Z,1025.94
2017-12-23T02:58:51.851Z,1025.99
2017-12-23T02:59:51.960Z,1026
2017-12-23T03:00:52.406Z,1025.95
2017-12-23T03:01:52.431Z,1025.97
2017-12-23T03:02:52.466Z,1026.04
2017-12-23T03:03:52.482Z,1026.07
2017-12-23T03:04:52.505Z,1026.03
2017-12-23T03:05:52.868Z,1026.12
2017-12-23T03:06:52.916Z,1026.07
2017-12-23T03:07:52.925Z,1026.1
2017-12-23T03:08:52.964Z,1026.06
2017-12-23T03:09:53.373Z,1026.01
2017-12-23T03:10:53.404Z,1026.02
2017-12-23T03:11:53.419Z,1026.01
2017-12-23T03:12:53.513Z,1025.96
2017-12-23T03:13:53.807Z,1025.98
2017-12-23T03:14:53.801Z,1025.89
2017-12-23T03:15:54.051Z,1025.87
2017-12-23T03:16:54.056Z,1025.87
2017-12-23T03:17:54.515Z,1025.84
2017-12-23T03:18:54.962Z,1025.86
2017-12-23T03:19:55.371Z,1025.87
2017-12-23T03:20:55.374Z,1025.87
2017-12-23T03:21:55.416Z,1025.89
2017-12-23T03:22:55.877Z,1025.86
2017-12-23T03:23:55.889Z,1025.82
2017-12-23T03:24:56.262Z,1025.79
2017-12-23T03:25:56.285Z,1025.87
2017-12-23T03:26:56.285Z,1025.85
2017-12-23T03:27:56.536Z,1025.85
2017-12-23T03:28:56.962Z,1025.85
2017-12-23T03:29:57.376Z,1025.87
2017-12-23T03:30:57.399Z,1025.8
2017-12-23T03:31:57.596Z,1025.79
2017-12-23T03:32:57.718Z,1025.79
2017-12-23T03:33:58.211Z,1025.82
2017-12-23T03:34:58.624Z,1025.86
2017-12-23T03:35:58.656Z,1025.83
2017-12-23T03:36:58.673Z,1025.82
2017-12-23T03:37:59.063Z,1025.78
2017-12-23T03:38:59.088Z,1025.76
2017-12-23T03:39:59.107Z,1025.74
2017-12-23T03:40:59.130Z,1025.66
2017-12-23T03:41:59.134Z,1025.66
2017-12-23T03:42:59.164Z,1025.67
2017-12-23T03:43:59.545Z,1025.65
2017-12-23T03:44:59.965Z,1025.63
2017-12-23T03:46:00.376Z,1025.61
2017-12-23T03:47:00.377Z,1025.56
2017-12-23T03:48:00.813Z,1025.58
2017-12-23T03:49:00.924Z,1025.51
2017-12-23T03:50:01.397Z,1025.43
2017-12-23T03:51:01.853Z,1025.42
2017-12-23T03:52:01.872Z,1025.42
2017-12-23T03:53:02.274Z,1025.39
2017-12-23T03:54:02.668Z,1025.44
2017-12-23T03:55:02.694Z,1025.35
2017-12-23T03:56:02.895Z,1025.37
2017-12-23T03:57:02.921Z,1025.26
2017-12-23T03:58:03.210Z,1025.18
2017-12-23T03:59:03.229Z,1025.12
2017-12-23T04:00:03.664Z,1025.06
2017-12-23T04:01:03.812Z,1025.05
2017-12-23T04:02:03.834Z,1025.06
2017-12-23T04:03:03.920Z,1025.06
2017-12-23T04:04:04.375Z,1025.04
2017-12-23T04:05:04.502Z,1025.08
2017-12-23T04:06:05.025Z,1025.14
2017-12-23T04:07:05.469Z,1025.13
2017-12-23T04:08:05.492Z,1025.1
2017-12-23T04:09:05.503Z,1025.12
2017-12-23T04:10:05.582Z,1025.15
2017-12-23T04:11:05.570Z,1025.15
2017-12-23T04:12:05.571Z,1025.12
2017-12-23T04:13:05.684Z,1025.13
2017-12-23T04:14:06.102Z,1025.11
2017-12-23T04:15:06.568Z,1025.05
2017-12-23T04:16:07.014Z,1025.12
2017-12-23T04:17:07.015Z,1025.09
2017-12-23T04:18:07.410Z,1025.08
2017-12-23T04:19:07.614Z,1025.08
2017-12-23T04:20:08.030Z,1025.08
2017-12-23T04:21:08.190Z,1025.05
2017-12-23T04:22:08.212Z,1024.98
2017-12-23T04:23:08.259Z,1025.04
2017-12-23T04:24:08.284Z,1025
2017-12-23T04:25:08.714Z,1025.06
2017-12-23T04:26:08.731Z,1025.06
2017-12-23T04:27:08.890Z,1025.16
2017-12-23T04:28:08.897Z,1025.11
2017-12-23T04:29:09.103Z,1025.13
2017-12-23T04:30:09.379Z,1025.16
2017-12-23T04:31:09.621Z,1025.14
2017-12-23T04:32:09.664Z,1025.08
2017-12-23T04:33:10.114Z,1025.06
2017-12-23T04:34:10.535Z,1025.07
2017-12-23T04:35:10.564Z,1025.05
2017-12-23T04:36:10.580Z,1025.12
2017-12-23T04:37:10.590Z,1025.13
2017-12-23T04:38:10.755Z,1025.09
2017-12-23T04:39:10.886Z,1025.09
2017-12-23T04:40:11.053Z,1025.15
2017-12-23T04:41:11.185Z,1025.07
2017-12-23T04:42:11.498Z,1025.05
2017-12-23T04:43:11.513Z,1025.03
2017-12-23T04:44:11.520Z,1025.06
2017-12-23T04:45:11.569Z,1025.01
2017-12-23T04:46:11.575Z,1025.09
2017-12-23T04:47:11.742Z,1025
2017-12-23T04:48:11.930Z,1025.08
2017-12-23T04:49:12.059Z,1025
2017-12-23T04:50:12.566Z,1025.01
2017-12-23T04:51:12.501Z,1024.91
2017-12-23T04:52:12.658Z,1024.9
2017-12-23T04:53:13.001Z,1024.88
2017-12-23T04:54:13.161Z,1024.84
2017-12-23T04:55:13.609Z,1024.79
2017-12-23T04:56:13.759Z,1024.83
2017-12-23T04:57:14.161Z,1024.83
2017-12-23T04:58:14.163Z,1024.82
2017-12-23T04:59:14.357Z,1024.78
2017-12-23T05:01:19.384Z,1024.78
2017-12-23T05:02:19.832Z,1024.76
2017-12-23T05:03:19.859Z,1024.72
2017-12-23T05:04:20.298Z,1024.72
2017-12-23T05:05:20.748Z,1024.73
2017-12-23T05:06:20.936Z,1024.74
2017-12-23T05:07:21.217Z,1024.7
2017-12-23T05:08:21.248Z,1024.73
2017-12-23T05:09:21.268Z,1024.67
2017-12-23T05:10:21.435Z,1024.61
2017-12-23T05:11:21.851Z,1024.66
2017-12-23T05:12:22.309Z,1024.57
2017-12-23T05:13:22.331Z,1024.59
2017-12-23T05:14:22.362Z,1024.59
2017-12-23T05:15:22.383Z,1024.54
2017-12-23T05:16:22.562Z,1024.57
2017-12-23T05:17:22.766Z,1024.55
2017-12-23T05:18:22.791Z,1024.58
2017-12-23T05:19:22.809Z,1024.57
2017-12-23T05:20:22.834Z,1024.53
2017-12-23T05:21:22.867Z,1024.51
2017-12-23T05:22:22.883Z,1024.58
2017-12-23T05:23:23.106Z,1024.46
2017-12-23T05:24:23.131Z,1024.5
2017-12-23T05:25:23.562Z,1024.44
2017-12-23T05:26:23.751Z,1024.39
2017-12-23T05:27:24.182Z,1024.34
2017-12-23T05:28:24.625Z,1024.3
2017-12-23T05:29:24.652Z,1024.29
2017-12-23T05:30:24.830Z,1024.36
2017-12-23T05:31:24.850Z,1024.2
2017-12-23T05:32:25.018Z,1024.31
2017-12-23T05:33:25.047Z,1024.32
2017-12-23T05:34:25.493Z,1024.28
2017-12-23T05:35:25.957Z,1024.27
2017-12-23T05:36:25.991Z,1024.3
2017-12-23T05:37:26.020Z,1024.33
2017-12-23T05:38:26.042Z,1024.36
2017-12-23T05:39:26.067Z,1024.36
2017-12-23T05:40:26.092Z,1024.32
2017-12-23T05:41:26.267Z,1024.24
2017-12-23T05:42:26.866Z,1024.22
2017-12-23T05:43:26.773Z,1024.25
2017-12-23T05:44:26.793Z,1024.32
2017-12-23T05:45:26.818Z,1024.37
2017-12-23T05:46:26.991Z,1024.25
2017-12-23T05:47:27.130Z,1024.33
2017-12-23T05:48:27.160Z,1024.32
2017-12-23T05:49:27.608Z,1024.35
2017-12-23T05:50:27.799Z,1024.37
2017-12-23T05:51:27.824Z,1024.33
2017-12-23T05:52:28.017Z,1024.33
2017-12-23T05:53:28.041Z,1024.33
2017-12-23T05:54:28.064Z,1024.32
2017-12-23T05:55:28.235Z,1024.25
2017-12-23T05:56:28.664Z,1024.25
2017-12-23T05:57:28.691Z,1024.18
2017-12-23T05:58:29.125Z,1024.16
2017-12-23T05:59:29.147Z,1024.06
2017-12-23T06:00:29.314Z,1024.08
2017-12-23T06:01:29.759Z,1024.1
2017-12-23T06:02:29.782Z,1024.06
2017-12-23T06:03:29.957Z,1023.99
2017-12-23T06:04:30.239Z,1023.96
2017-12-23T06:05:30.411Z,1023.96
2017-12-23T06:06:30.612Z,1023.94
2017-12-23T06:07:31.051Z,1023.94
2017-12-23T06:08:31.495Z,1023.95
2017-12-23T06:09:31.949Z,1023.97
2017-12-23T06:10:32.388Z,1023.84
2017-12-23T06:11:32.412Z,1023.86
2017-12-23T06:12:32.589Z,1023.91
2017-12-23T06:13:32.871Z,1023.92
2017-12-23T06:14:32.897Z,1023.97
2017-12-23T06:15:33.042Z,1023.92
2017-12-23T06:16:33.235Z,1023.96
2017-12-23T06:17:33.258Z,1023.94
2017-12-23T06:18:33.285Z,1023.98
2017-12-23T06:19:33.572Z,1023.91
2017-12-23T06:20:33.591Z,1024.02
2017-12-23T06:21:34.007Z,1023.99
2017-12-23T06:22:34.029Z,1023.99
2017-12-23T06:23:34.059Z,1023.89
2017-12-23T06:24:34.083Z,1023.82
2017-12-23T06:25:34.107Z,1023.72
2017-12-23T06:26:34.170Z,1023.69
2017-12-23T06:27:34.152Z,1023.62
2017-12-23T06:28:34.603Z,1023.55
2017-12-23T06:29:34.764Z,1023.49
2017-12-23T06:30:35.214Z,1023.46
2017-12-23T06:31:35.376Z,1023.43
2017-12-23T06:32:35.541Z,1023.41
2017-12-23T06:33:35.967Z,1023.45
2017-12-23T06:34:36.206Z,1023.44
2017-12-23T06:35:36.393Z,1023.44
2017-12-23T06:36:36.839Z,1023.52
2017-12-23T06:37:37.296Z,1023.48
2017-12-23T06:38:37.319Z,1023.39
2017-12-23T06:39:37.498Z,1023.46
2017-12-23T06:40:37.522Z,1023.48
2017-12-23T06:41:37.556Z,1023.42
2017-12-23T06:42:37.576Z,1023.39
2017-12-23T06:43:38.126Z,1023.33
2017-12-23T06:44:38.574Z,1023.29
2017-12-23T06:45:38.588Z,1023.26
2017-12-23T06:46:38.610Z,1023.25
2017-12-23T06:47:38.637Z,1023.14
2017-12-23T06:48:38.663Z,1023.05
2017-12-23T06:49:38.883Z,1023.1
2017-12-23T06:50:38.906Z,1023
2017-12-23T06:51:38.929Z,1023.02
2017-12-23T06:52:39.381Z,1023.01
2017-12-23T06:53:39.407Z,1023.05
2017-12-23T06:54:39.864Z,1022.98
2017-12-23T06:55:39.892Z,1023
2017-12-23T06:56:39.922Z,1023.11
2017-12-23T06:57:40.112Z,1023.01
2017-12-23T06:58:40.137Z,1023.12
2017-12-23T06:59:40.370Z,1023
2017-12-23T07:00:40.822Z,1023.03
2017-12-23T07:01:40.992Z,1023.07
2017-12-23T07:02:41.186Z,1023.01
2017-12-23T07:03:41.210Z,1023.02
2017-12-23T07:04:41.500Z,1022.98
2017-12-23T07:05:41.521Z,1023
2017-12-23T07:06:41.721Z,1022.9
2017-12-23T07:07:42.143Z,1022.95
2017-12-23T07:08:42.167Z,1022.98
2017-12-23T07:09:42.353Z,1022.9
2017-12-23T07:10:42.375Z,1022.89
2017-12-23T07:11:42.545Z,1022.95
2017-12-23T07:12:42.979Z,1022.92
2017-12-23T07:13:43.300Z,1022.85
2017-12-23T07:14:43.210Z,1022.82
2017-12-23T07:15:43.374Z,1022.83
2017-12-23T07:16:43.664Z,1022.89
2017-12-23T07:17:44.117Z,1022.88
2017-12-23T07:18:44.145Z,1022.86
2017-12-23T07:19:44.598Z,1022.77
2017-12-23T07:20:44.831Z,1022.82
2017-12-23T07:21:44.855Z,1022.83
2017-12-23T07:22:44.876Z,1022.76
2017-12-23T07:23:44.902Z,1022.76
2017-12-23T07:24:44.928Z,1022.81
2017-12-23T07:25:45.090Z,1022.86
2017-12-23T07:26:45.522Z,1022.86
2017-12-23T07:27:45.712Z,1022.78
2017-12-23T07:28:45.739Z,1022.86
2017-12-23T07:29:46.185Z,1022.84
2017-12-23T07:30:46.619Z,1022.82
2017-12-23T07:31:47.071Z,1022.83
2017-12-23T07:32:47.231Z,1022.86
2017-12-23T07:33:47.260Z,1022.83
2017-12-23T07:34:47.281Z,1022.89
2017-12-23T07:35:47.307Z,1022.83
2017-12-23T07:36:47.730Z,1022.86
2017-12-23T07:37:47.752Z,1022.86
2017-12-23T07:38:47.938Z,1022.81
2017-12-23T07:39:48.217Z,1022.75
2017-12-23T07:40:48.433Z,1022.73
2017-12-23T07:41:48.432Z,1022.71
2017-12-23T07:42:48.452Z,1022.72
2017-12-23T07:43:48.516Z,1022.73
2017-12-23T07:44:48.522Z,1022.75
2017-12-23T07:45:48.527Z,1022.66
2017-12-23T07:46:48.983Z,1022.71
2017-12-23T07:47:49.446Z,1022.77
2017-12-23T07:48:49.919Z,1022.75
2017-12-23T07:49:49.946Z,1022.75
2017-12-23T07:50:49.968Z,1022.67
2017-12-23T07:51:50.027Z,1022.63
2017-12-23T07:52:50.063Z,1022.69
2017-12-23T07:53:50.546Z,1022.57
2017-12-23T07:54:50.989Z,1022.58
2017-12-23T07:55:51.434Z,1022.54
2017-12-23T07:56:51.471Z,1022.56
2017-12-23T07:57:51.486Z,1022.5
2017-12-23T07:58:51.514Z,1022.51
2017-12-23T07:59:52.007Z,1022.54
2017-12-23T08:00:51.996Z,1022.5
2017-12-23T08:01:52.024Z,1022.53
2017-12-23T08:02:52.497Z,1022.43
2017-12-23T08:03:52.527Z,1022.48
2017-12-23T08:04:52.728Z,1022.48
2017-12-23T08:05:53.164Z,1022.45
2017-12-23T08:06:53.183Z,1022.43
2017-12-23T08:07:53.219Z,1022.49
2017-12-23T08:08:53.662Z,1022.53
2017-12-23T08:09:53.692Z,1022.49
2017-12-23T08:10:53.733Z,1022.44
2017-12-23T08:11:53.759Z,1022.37
2017-12-23T08:12:53.782Z,1022.33
2017-12-23T08:13:53.807Z,1022.29
2017-12-23T08:14:53.828Z,1022.27
2017-12-23T08:15:54.000Z,1022.27
2017-12-23T08:16:54.469Z,1022.19
2017-12-23T08:17:54.936Z,1022.23
2017-12-23T08:18:55.398Z,1022.27
2017-12-23T08:19:55.961Z,1022.24
2017-12-23T08:20:55.988Z,1022.2
2017-12-23T08:21:56.453Z,1022.18
2017-12-23T08:22:56.497Z,1022.23
2017-12-23T08:23:56.355Z,1022.2
2017-12-23T08:24:56.439Z,1022.14
2017-12-23T08:25:56.349Z,1022.26
2017-12-23T08:26:56.507Z,1022.17
2017-12-23T08:27:56.579Z,1022.21
2017-12-23T08:28:56.650Z,1022.19
2017-12-23T08:29:56.640Z,1022.17
2017-12-23T08:30:56.706Z,1022.15
2017-12-23T08:31:56.282Z,1022.15
2017-12-23T08:32:56.505Z,1022.04
2017-12-23T08:33:56.687Z,1022.1
2017-12-23T08:34:56.915Z,1022.1
2017-12-23T08:35:56.939Z,1022.11
2017-12-23T08:36:56.967Z,1022.08
2017-12-23T08:37:57.159Z,1022.05
2017-12-23T08:38:57.184Z,1022.09
2017-12-23T08:39:57.256Z,1022.06
2017-12-23T08:40:57.462Z,1022.18
2017-12-23T08:41:57.681Z,1022.12
2017-12-23T08:42:57.931Z,1022.13
2017-12-23T08:43:57.967Z,1022.2
2017-12-23T08:44:57.983Z,1022.13
2017-12-23T08:45:58.011Z,1022.06
2017-12-23T08:46:58.522Z,1022.17
2017-12-23T08:47:58.538Z,1022.22
2017-12-23T08:48:58.566Z,1022.15
2017-12-23T08:49:58.593Z,1022.21
2017-12-23T08:50:58.617Z,1022.12
2017-12-23T08:51:58.638Z,1022.24
2017-12-23T08:52:58.883Z,1022.17
2017-12-23T08:53:59.365Z,1022.14
2017-12-23T08:54:59.560Z,1022.19
2017-12-23T08:56:00.030Z,1022.2
2017-12-23T08:57:00.055Z,1022.15
2017-12-23T08:58:00.081Z,1022.1
2017-12-23T08:59:00.506Z,1022.07
2017-12-23T09:00:00.684Z,1022.04
2017-12-23T09:01:00.974Z,1022.08
2017-12-23T09:02:01.416Z,1022.09
2017-12-23T09:03:01.443Z,1022.02
2017-12-23T09:04:01.866Z,1022.03
2017-12-23T09:05:01.887Z,1022.04
2017-12-23T09:06:02.053Z,1022.04
2017-12-23T09:07:02.500Z,1022.01
2017-12-23T09:08:02.944Z,1022
2017-12-23T09:09:02.963Z,1022.12
2017-12-23T09:10:03.136Z,1022.16
2017-12-23T09:11:03.173Z,1022.24
2017-12-23T09:12:03.198Z,1022.21
2017-12-23T09:13:03.274Z,1022.3
2017-12-23T09:14:03.293Z,1022.39
2017-12-23T09:15:03.275Z,1022.36
2017-12-23T09:16:03.296Z,1022.4
2017-12-23T09:17:03.320Z,1022.36
2017-12-23T09:18:03.343Z,1022.41
2017-12-23T09:19:03.352Z,1022.35
2017-12-23T09:20:03.450Z,1022.36
2017-12-23T09:21:03.488Z,1022.37
2017-12-23T09:22:03.522Z,1022.31
2017-12-23T09:23:04.095Z,1022.4
2017-12-23T09:24:03.817Z,1022.45
2017-12-23T09:25:04.427Z,1022.48
2017-12-23T09:26:04.374Z,1022.44
2017-12-23T09:27:04.387Z,1022.51
2017-12-23T09:28:04.597Z,1022.44
2017-12-23T09:29:04.622Z,1022.47
2017-12-23T09:30:04.693Z,1022.46
2017-12-23T09:31:04.754Z,1022.51
2017-12-23T09:32:04.773Z,1022.5
2017-12-23T09:33:05.253Z,1022.49
2017-12-23T09:34:05.279Z,1022.47
2017-12-23T09:35:05.306Z,1022.46
2017-12-23T09:36:05.334Z,1022.48
2017-12-23T09:37:05.598Z,1022.53
2017-12-23T09:38:05.616Z,1022.55
2017-12-23T09:39:05.646Z,1022.55
2017-12-23T09:40:05.833Z,1022.55
2017-12-23T09:41:05.866Z,1022.44
2017-12-23T09:42:06.318Z,1022.46
2017-12-23T09:43:06.337Z,1022.52
2017-12-23T09:44:06.364Z,1022.4
2017-12-23T09:45:06.393Z,1022.42
2017-12-23T09:46:06.572Z,1022.4
2017-12-23T09:47:06.597Z,1022.37
2017-12-23T09:48:07.019Z,1022.38
2017-12-23T09:49:07.046Z,1022.42
2017-12-23T09:50:07.286Z,1022.38
2017-12-23T09:51:07.310Z,1022.29
2017-12-23T09:52:07.513Z,1022.26
2017-12-23T09:53:07.541Z,1022.29
2017-12-23T09:54:07.709Z,1022.28
2017-12-23T09:55:07.871Z,1022.32
2017-12-23T09:56:08.314Z,1022.28
2017-12-23T09:57:08.338Z,1022.29
2017-12-23T09:58:08.515Z,1022.32
2017-12-23T09:59:08.570Z,1022.28
2017-12-23T10:00:09.003Z,1022.25
2017-12-23T10:01:09.020Z,1022.21
2017-12-23T10:02:09.055Z,1022.24
2017-12-23T10:03:09.074Z,1022.3
2017-12-23T10:04:09.262Z,1022.21
2017-12-23T10:05:09.499Z,1022.27
2017-12-23T10:06:09.487Z,1022.27
2017-12-23T10:07:09.679Z,1022.23
2017-12-23T10:08:09.710Z,1022.21
2017-12-23T10:09:09.727Z,1022.22
2017-12-23T10:10:09.758Z,1022.2
2017-12-23T10:11:09.780Z,1022.2
2017-12-23T10:12:09.956Z,1022.06
2017-12-23T10:13:10.421Z,1022.05
2017-12-23T10:14:10.457Z,1022.05
2017-12-23T10:15:10.470Z,1021.98
2017-12-23T10:16:10.893Z,1021.99
2017-12-23T10:17:11.073Z,1021.97
2017-12-23T10:18:11.252Z,1022.06
2017-12-23T10:19:11.131Z,1021.99
2017-12-23T10:20:11.594Z,1021.98
2017-12-23T10:21:12.046Z,1021.96
2017-12-23T10:22:12.511Z,1021.93
2017-12-23T10:23:12.708Z,1021.97
2017-12-23T10:24:13.154Z,1021.9
2017-12-23T10:25:13.182Z,1021.95
2017-12-23T10:26:13.394Z,1021.95
2017-12-23T10:27:13.818Z,1021.92
2017-12-23T10:28:13.847Z,1021.91
2017-12-23T10:29:14.019Z,1021.89
2017-12-23T10:30:14.038Z,1021.88
2017-12-23T10:31:14.580Z,1021.85
2017-12-23T10:32:14.611Z,1021.8
2017-12-23T10:33:14.650Z,1021.76
2017-12-23T10:34:15.121Z,1021.73
2017-12-23T10:35:15.338Z,1021.77
2017-12-23T10:36:15.373Z,1021.64
2017-12-23T10:37:15.404Z,1021.6
2017-12-23T10:38:15.421Z,1021.66
2017-12-23T10:39:15.873Z,1021.52
2017-12-23T10:40:15.904Z,1021.5
2017-12-23T10:41:15.947Z,1021.51
2017-12-23T10:42:15.957Z,1021.45
2017-12-23T10:43:15.979Z,1021.55
2017-12-23T10:44:16.160Z,1021.49
2017-12-23T10:45:16.184Z,1021.56
2017-12-23T10:46:16.211Z,1021.57
2017-12-23T10:47:16.259Z,1021.52
2017-12-23T10:48:16.736Z,1021.46
2017-12-23T10:49:16.765Z,1021.49
2017-12-23T10:50:16.792Z,1021.48
2017-12-23T10:51:16.815Z,1021.41
2017-12-23T10:52:16.842Z,1021.48
2017-12-23T10:53:17.023Z,1021.47
2017-12-23T10:54:17.195Z,1021.47
2017-12-23T10:55:17.223Z,1021.48
2017-12-23T10:56:17.666Z,1021.38
2017-12-23T10:57:18.475Z,1021.37
2017-12-23T10:58:18.246Z,1021.43
2017-12-23T10:59:18.278Z,1021.41
2017-12-23T11:00:18.738Z,1021.4
2017-12-23T11:01:18.764Z,1021.44
2017-12-23T11:02:18.952Z,1021.37
2017-12-23T11:03:19.416Z,1021.36
2017-12-23T11:04:19.916Z,1021.45
2017-12-23T11:05:19.627Z,1021.41
2017-12-23T11:06:19.654Z,1021.39
2017-12-23T11:07:19.885Z,1021.37
2017-12-23T11:08:19.901Z,1021.4
2017-12-23T11:09:19.938Z,1021.29
2017-12-23T11:10:20.122Z,1021.34
2017-12-23T11:11:20.151Z,1021.26
2017-12-23T11:12:20.201Z,1021.2
2017-12-23T11:13:20.393Z,1021.21
2017-12-23T11:14:20.602Z,1021.22
2017-12-23T11:15:20.626Z,1021.22
2017-12-23T11:16:20.824Z,1021.18
2017-12-23T11:17:20.863Z,1021.21
2017-12-23T11:18:20.876Z,1021.21
2017-12-23T11:19:21.355Z,1021.16
2017-12-23T11:20:21.365Z,1021.19
2017-12-23T11:21:21.388Z,1021.2
2017-12-23T11:22:21.686Z,1021.12
2017-12-23T11:23:21.887Z,1021.17
2017-12-23T11:24:21.918Z,1021.07
2017-12-23T11:25:21.953Z,1021.06
2017-12-23T11:26:21.977Z,1021.1
2017-12-23T11:27:22.425Z,1021.03
2017-12-23T11:28:22.454Z,1021.03
2017-12-23T11:29:22.482Z,1020.84
2017-12-23T11:30:22.928Z,1020.83
2017-12-23T11:31:22.959Z,1020.83
2017-12-23T11:32:23.407Z,1020.77
2017-12-23T11:33:23.428Z,1020.7
2017-12-23T11:34:23.458Z,1020.78
2017-12-23T11:35:23.496Z,1020.79
2017-12-23T11:36:23.511Z,1020.72
2017-12-23T11:37:23.541Z,1020.73
2017-12-23T11:38:23.563Z,1020.83
2017-12-23T11:39:23.592Z,1020.78
2017-12-23T11:40:24.064Z,1020.66
2017-12-23T11:41:24.101Z,1020.71
2017-12-23T11:42:24.186Z,1020.71
2017-12-23T11:43:24.143Z,1020.73
2017-12-23T11:44:24.512Z,1020.72
2017-12-23T11:45:24.554Z,1020.73
2017-12-23T11:46:24.571Z,1020.72
2017-12-23T11:47:24.606Z,1020.74
2017-12-23T11:48:24.630Z,1020.74
2017-12-23T11:49:25.106Z,1020.67
2017-12-23T11:50:25.131Z,1020.7
2017-12-23T11:51:25.379Z,1020.65
2017-12-23T11:52:25.411Z,1020.66
2017-12-23T11:53:25.435Z,1020.65
2017-12-23T11:54:25.468Z,1020.66
2017-12-23T11:55:25.493Z,1020.65
2017-12-23T11:56:25.521Z,1020.58
2017-12-23T11:57:25.712Z,1020.58
2017-12-23T11:58:26.037Z,1020.54
2017-12-23T11:59:26.057Z,1020.45
2017-12-23T12:00:26.085Z,1020.52
2017-12-23T12:01:26.123Z,1020.46
2017-12-23T12:02:26.631Z,1020.46
2017-12-23T12:03:26.818Z,1020.49
2017-12-23T12:04:26.835Z,1020.4
2017-12-23T12:05:26.861Z,1020.46
2017-12-23T12:06:26.892Z,1020.39
2017-12-23T12:07:26.919Z,1020.34
2017-12-23T12:08:27.130Z,1020.41
2017-12-23T12:09:27.588Z,1020.33
2017-12-23T12:10:27.679Z,1020.3
2017-12-23T12:11:27.713Z,1020.28
2017-12-23T12:12:27.756Z,1020.27
2017-12-23T12:13:27.760Z,1020.2